createdAt,value
2018-12-06T00:00:57.300Z,13.83
2018-12-06T00:03:25.628Z,17.67
2018-12-06T00:05:53.996Z,13.57
2018-12-06T00:08:22.332Z,12.90
2018-12-06T00:10:50.664Z,16.53
2018-12-06T00:13:19.135Z,17.37
2018-12-06T00:15:47.472Z,17.20
2018-12-06T00:18:15.819Z,14.67
2018-12-06T00:20:44.282Z,17.43
2018-12-06T00:23:12.655Z,14.53
2018-12-06T00:25:41.016Z,9.53
2018-12-06T00:28:09.371Z,12.17
2018-12-06T00:30:41.483Z,12.00
2018-12-06T00:33:09.978Z,13.97
2018-12-06T00:35:38.496Z,17.07
2018-12-06T00:38:06.863Z,14.77
2018-12-06T00:40:35.206Z,14.60
2018-12-06T00:43:03.548Z,16.40
2018-12-06T00:45:32.013Z,19.47
2018-12-06T00:48:00.371Z,19.00
2018-12-06T00:50:29.003Z,18.77
2018-12-06T00:52:57.483Z,12.50
2018-12-06T00:55:25.855Z,16.07
2018-12-06T00:57:54.338Z,17.10
2018-12-06T01:00:22.819Z,15.97
2018-12-06T01:02:51.194Z,16.77
2018-12-06T01:05:19.542Z,17.97
2018-12-06T01:07:48.039Z,18.77
2018-12-06T01:10:16.398Z,15.13
2018-12-06T01:12:44.843Z,13.40
2018-12-06T01:15:13.183Z,18.33
2018-12-06T01:17:41.559Z,13.33
2018-12-06T01:20:09.896Z,17.00
2018-12-06T01:22:38.252Z,16.90
2018-12-06T01:25:07.081Z,12.50
2018-12-06T01:27:35.412Z,17.90
2018-12-06T01:30:04.328Z,11.77
2018-12-06T01:32:32.827Z,14.33
2018-12-06T01:35:01.299Z,16.33
2018-12-06T01:37:29.660Z,12.90
2018-12-06T01:39:58.012Z,15.53
2018-12-06T01:42:26.379Z,17.87
2018-12-06T01:44:54.751Z,17.77
2018-12-06T01:47:23.140Z,22.13
2018-12-06T01:49:51.507Z,17.77
2018-12-06T01:52:19.851Z,18.27
2018-12-06T01:54:48.213Z,14.23
2018-12-06T01:57:16.599Z,19.00
2018-12-06T01:59:44.951Z,19.37
2018-12-06T02:02:13.324Z,17.67
2018-12-06T02:04:41.655Z,13.70
2018-12-06T02:07:10.019Z,21.43
2018-12-06T02:09:38.359Z,23.27
2018-12-06T02:12:06.831Z,16.50
2018-12-06T02:14:35.180Z,18.00
2018-12-06T02:17:03.540Z,23.50
2018-12-06T02:19:31.906Z,21.53
2018-12-06T02:22:00.315Z,19.63
2018-12-06T02:24:28.771Z,20.20
2018-12-06T02:26:57.115Z,24.03
2018-12-06T02:29:27.511Z,21.20
2018-12-06T02:31:55.889Z,19.13
2018-12-06T02:34:24.240Z,20.70
2018-12-06T02:36:52.587Z,22.77
2018-12-06T02:39:20.996Z,25.73
2018-12-06T02:41:49.644Z,23.73
2018-12-06T02:44:18.007Z,26.70
2018-12-06T02:46:46.351Z,31.80
2018-12-06T02:49:14.704Z,27.53
2018-12-06T02:51:43.092Z,24.97
2018-12-06T02:54:11.447Z,33.10
2018-12-06T02:56:39.838Z,30.50
2018-12-06T02:59:08.203Z,32.03
2018-12-06T03:01:36.579Z,34.13
2018-12-06T03:04:04.908Z,28.67
2018-12-06T03:06:33.325Z,32.10
2018-12-06T03:09:01.696Z,29.20
2018-12-06T03:11:30.031Z,37.83
2018-12-06T03:13:58.488Z,26.53
2018-12-06T03:16:26.843Z,31.27
2018-12-06T03:18:55.345Z,31.77
2018-12-06T03:21:23.703Z,37.87
2018-12-06T03:23:52.026Z,33.83
2018-12-06T03:26:20.512Z,35.03
2018-12-06T03:28:48.848Z,33.17
2018-12-06T03:31:17.208Z,31.80
2018-12-06T03:33:45.685Z,39.63
2018-12-06T03:36:14.044Z,30.00
2018-12-06T03:38:47.390Z,34.07
2018-12-06T03:41:15.784Z,36.07
2018-12-06T03:43:44.154Z,33.67
2018-12-06T03:46:12.501Z,36.50
2018-12-06T03:48:40.900Z,33.87
2018-12-06T03:51:09.353Z,33.13
2018-12-06T03:53:37.715Z,35.90
2018-12-06T03:56:06.145Z,33.83
2018-12-06T03:58:34.546Z,35.23
2018-12-06T04:01:02.888Z,37.47
2018-12-06T04:03:31.855Z,31.37
2018-12-06T04:06:00.220Z,34.43
2018-12-06T04:08:28.586Z,37.07
2018-12-06T04:10:57.004Z,34.67
2018-12-06T04:13:25.367Z,33.43
2018-12-06T04:15:53.853Z,34.10
2018-12-06T04:18:22.236Z,31.80
2018-12-06T04:20:50.571Z,33.77
2018-12-06T04:23:18.973Z,33.07
2018-12-06T04:25:47.359Z,35.63
2018-12-06T04:28:15.732Z,37.30
2018-12-06T04:30:44.101Z,37.43
2018-12-06T04:35:47.116Z,41.30
2018-12-06T04:38:15.458Z,39.70
2018-12-06T04:40:43.838Z,36.13
2018-12-06T04:43:12.189Z,35.63
2018-12-06T04:45:40.543Z,36.60
2018-12-06T04:48:08.916Z,39.83
2018-12-06T04:50:37.295Z,36.03
2018-12-06T04:53:05.627Z,40.50
2018-12-06T04:55:35.574Z,40.40
2018-12-06T04:58:04.263Z,43.33
2018-12-06T05:00:32.631Z,36.87
2018-12-06T05:03:00.958Z,36.83
2018-12-06T05:05:29.314Z,40.87
2018-12-06T05:07:57.715Z,39.23
2018-12-06T05:10:26.071Z,39.07
2018-12-06T05:12:54.421Z,35.53
2018-12-06T05:15:22.766Z,36.30
2018-12-06T05:17:51.102Z,38.30
2018-12-06T05:20:19.477Z,38.10
2018-12-06T05:22:47.818Z,39.90
2018-12-06T05:25:16.187Z,43.90
2018-12-06T05:27:44.651Z,39.17
2018-12-06T05:30:13.018Z,40.13
2018-12-06T05:32:41.379Z,37.80
2018-12-06T05:35:09.814Z,42.60
2018-12-06T05:37:38.131Z,40.90
2018-12-06T05:40:06.639Z,39.13
2018-12-06T05:42:35.019Z,41.47
2018-12-06T05:45:03.567Z,38.90
2018-12-06T05:47:31.946Z,36.23
2018-12-06T05:50:00.265Z,42.73
2018-12-06T05:52:28.630Z,40.77
2018-12-06T05:54:56.946Z,41.03
2018-12-06T05:57:25.319Z,40.53
2018-12-06T05:59:53.672Z,43.07
2018-12-06T06:02:22.039Z,37.87
2018-12-06T06:04:50.410Z,39.27
2018-12-06T06:07:18.872Z,40.37
2018-12-06T06:09:47.204Z,44.60
2018-12-06T06:12:15.572Z,45.27
2018-12-06T06:14:43.991Z,42.10
2018-12-06T06:17:12.432Z,46.37
2018-12-06T06:19:40.867Z,39.07
2018-12-06T06:22:09.235Z,45.23
2018-12-06T06:24:37.579Z,36.17
2018-12-06T06:27:05.963Z,48.80
2018-12-06T06:29:34.411Z,44.50
2018-12-06T06:32:02.891Z,42.83
2018-12-06T06:34:31.235Z,44.83
2018-12-06T06:36:59.615Z,45.73
2018-12-06T06:39:27.962Z,48.63
2018-12-06T06:41:56.350Z,47.20
2018-12-06T06:44:24.659Z,42.63
2018-12-06T06:46:53.015Z,46.60
2018-12-06T06:49:21.381Z,49.17
2018-12-06T06:51:49.737Z,51.20
2018-12-06T06:54:18.139Z,51.40
2018-12-06T06:56:46.520Z,46.43
2018-12-06T06:59:14.970Z,46.67
2018-12-06T07:01:43.310Z,50.60
2018-12-06T07:04:11.723Z,46.33
2018-12-06T07:06:40.122Z,52.47
2018-12-06T07:09:08.866Z,50.13
2018-12-06T07:11:37.421Z,49.07
2018-12-06T07:14:05.778Z,60.27
2018-12-06T07:16:34.236Z,56.87
2018-12-06T07:19:02.922Z,53.37
2018-12-06T07:21:31.261Z,57.57
2018-12-06T07:24:00.876Z,54.30
2018-12-06T07:26:29.924Z,55.07
2018-12-06T07:28:58.431Z,60.90
2018-12-06T07:31:26.775Z,57.33
2018-12-06T07:33:55.237Z,59.20
2018-12-06T07:36:23.605Z,58.53
2018-12-06T07:38:51.961Z,52.73
2018-12-06T07:41:20.371Z,56.47
2018-12-06T07:43:48.747Z,54.87
2018-12-06T07:46:17.175Z,55.73
2018-12-06T07:48:45.867Z,54.40
2018-12-06T07:51:14.237Z,52.47
2018-12-06T07:53:42.955Z,60.20
2018-12-06T07:56:11.575Z,65.30
2018-12-06T07:58:40.101Z,54.27
2018-12-06T08:01:09.299Z,67.40
2018-12-06T08:03:37.674Z,67.67
2018-12-06T08:06:06.140Z,69.23
2018-12-06T08:08:34.475Z,65.90
2018-12-06T08:11:02.829Z,77.77
2018-12-06T08:13:31.720Z,72.00
2018-12-06T08:16:00.082Z,74.27
2018-12-06T08:18:28.581Z,82.63
2018-12-06T08:20:57.097Z,79.93
2018-12-06T08:23:28.254Z,86.57
2018-12-06T08:26:01.046Z,77.23
2018-12-06T08:28:30.339Z,77.70
2018-12-06T08:30:59.112Z,86.27
2018-12-06T08:33:27.456Z,87.00
2018-12-06T08:35:55.831Z,94.03
2018-12-06T08:38:24.178Z,88.17
2018-12-06T08:40:52.662Z,89.40
2018-12-06T08:43:21.018Z,98.10
2018-12-06T08:45:53.103Z,77.53
2018-12-06T08:48:21.464Z,88.93
2018-12-06T08:50:49.934Z,86.03
2018-12-06T08:53:18.344Z,85.37
2018-12-06T08:55:46.770Z,82.70
2018-12-06T08:58:16.046Z,90.27
2018-12-06T09:00:44.413Z,89.13
2018-12-06T09:03:12.807Z,80.77
2018-12-06T09:05:47.539Z,83.10
2018-12-06T09:08:15.935Z,88.27
2018-12-06T09:10:51.350Z,89.43
2018-12-06T09:13:14.734Z,80.83
2018-12-06T09:15:43.106Z,83.23
2018-12-06T09:18:11.452Z,88.33
2018-12-06T09:20:39.940Z,84.87
2018-12-06T09:23:08.286Z,89.37
2018-12-06T09:25:38.334Z,99.77
2018-12-06T09:28:10.266Z,86.20
2018-12-06T09:30:45.296Z,95.20
2018-12-06T09:33:13.651Z,90.23
2018-12-06T09:35:42.007Z,100.13
2018-12-06T09:38:10.330Z,98.30
2018-12-06T09:40:38.962Z,115.17
2018-12-06T09:43:07.422Z,103.20
2018-12-06T09:45:35.792Z,98.90
2018-12-06T09:48:04.155Z,103.17
2018-12-06T09:50:34.370Z,100.03
2018-12-06T09:53:02.731Z,106.87
2018-12-06T09:55:31.091Z,106.20
2018-12-06T09:57:59.566Z,101.77
2018-12-06T10:00:27.940Z,96.77
2018-12-06T10:02:56.310Z,96.13
2018-12-06T10:05:24.651Z,99.90
2018-12-06T10:07:53.043Z,93.60
2018-12-06T10:10:24.219Z,101.10
2018-12-06T10:12:52.587Z,90.60
2018-12-06T10:15:21.299Z,87.50
2018-12-06T10:17:49.662Z,101.60
2018-12-06T10:20:23.724Z,90.20
2018-12-06T10:22:52.071Z,102.43
2018-12-06T10:25:20.698Z,98.53
2018-12-06T10:27:50.377Z,94.30
2018-12-06T10:30:19.059Z,88.93
2018-12-06T10:32:47.434Z,91.47
2018-12-06T10:35:15.767Z,93.93
2018-12-06T10:37:44.162Z,101.60
2018-12-06T10:40:12.530Z,96.20
2018-12-06T10:42:41.762Z,96.77
2018-12-06T10:45:10.238Z,96.23
2018-12-06T10:47:38.707Z,89.23
2018-12-06T10:50:07.639Z,89.47
2018-12-06T10:52:35.974Z,91.17
2018-12-06T10:55:04.439Z,85.40
2018-12-06T10:57:32.803Z,88.47
2018-12-06T11:00:01.167Z,81.03
2018-12-06T11:03:35.098Z,82.47
2018-12-06T11:06:03.614Z,85.23
2018-12-06T11:08:31.956Z,101.13
2018-12-06T11:11:00.324Z,93.27
2018-12-06T11:13:28.666Z,87.60
2018-12-06T11:15:57.018Z,84.33
2018-12-06T11:18:27.082Z,83.97
2018-12-06T11:20:55.455Z,101.30
2018-12-06T11:23:23.835Z,102.43
2018-12-06T11:25:52.168Z,106.17
2018-12-06T11:28:20.653Z,104.30
2018-12-06T11:30:49.789Z,113.43
2018-12-06T11:33:18.154Z,106.40
2018-12-06T11:35:46.570Z,100.43
2018-12-06T11:38:15.250Z,117.77
2018-12-06T11:40:43.583Z,108.03
2018-12-06T11:43:11.943Z,101.00
2018-12-06T11:45:40.262Z,115.87
2018-12-06T11:48:08.782Z,99.23
2018-12-06T11:50:37.206Z,111.53
2018-12-06T11:53:11.611Z,111.57
2018-12-06T11:55:39.949Z,107.53
2018-12-06T11:58:11.478Z,101.40
2018-12-06T12:00:38.679Z,99.47
2018-12-06T12:03:07.030Z,95.70
2018-12-06T12:05:36.298Z,107.37
2018-12-06T12:08:05.407Z,92.30
2018-12-06T12:10:33.754Z,109.23
2018-12-06T12:13:02.748Z,104.00
2018-12-06T12:15:31.115Z,104.00
2018-12-06T12:17:59.486Z,103.80
2018-12-06T12:20:28.878Z,104.70
2018-12-06T12:23:01.801Z,102.30
2018-12-06T12:25:30.138Z,91.30
2018-12-06T12:27:58.503Z,86.23
2018-12-06T12:30:31.059Z,87.40
2018-12-06T12:32:59.470Z,87.20
2018-12-06T12:35:27.780Z,91.73
2018-12-06T12:37:56.143Z,87.57
2018-12-06T12:40:24.502Z,82.00
2018-12-06T12:42:52.882Z,85.17
2018-12-06T12:45:21.220Z,86.97
2018-12-06T12:47:49.616Z,87.00
2018-12-06T12:50:17.947Z,75.63
2018-12-06T12:52:47.547Z,85.40
2018-12-06T12:55:15.907Z,88.90
2018-12-06T12:57:44.262Z,102.50
2018-12-06T13:00:12.894Z,94.13
2018-12-06T13:02:41.272Z,99.43
2018-12-06T13:05:09.778Z,94.83
2018-12-06T13:07:38.155Z,93.33
2018-12-06T13:10:06.765Z,100.27
2018-12-06T13:12:35.242Z,116.77
2018-12-06T13:15:04.187Z,131.10
2018-12-06T13:17:32.522Z,111.40
2018-12-06T13:20:00.877Z,101.07
2018-12-06T13:22:29.223Z,113.97
2018-12-06T13:24:57.583Z,108.60
2018-12-06T13:27:30.403Z,117.47
2018-12-06T13:29:58.892Z,118.47
2018-12-06T13:32:27.242Z,123.33
2018-12-06T13:34:55.739Z,123.47
2018-12-06T13:37:24.086Z,137.47
2018-12-06T13:39:52.587Z,123.67
2018-12-06T13:42:25.314Z,103.17
2018-12-06T13:44:58.212Z,123.27
2018-12-06T13:47:26.567Z,127.83
2018-12-06T13:49:55.098Z,133.03
2018-12-06T13:52:23.479Z,141.00
2018-12-06T13:54:51.855Z,121.37
2018-12-06T13:57:20.260Z,142.53
2018-12-06T13:59:48.675Z,138.63
2018-12-06T14:02:17.051Z,141.67
2018-12-06T14:04:45.570Z,133.67
2018-12-06T14:07:13.979Z,147.60
2018-12-06T14:09:42.335Z,143.77
2018-12-06T14:12:10.702Z,154.87
2018-12-06T14:14:39.075Z,146.03
2018-12-06T14:17:07.434Z,178.33
2018-12-06T14:19:35.805Z,155.60
2018-12-06T14:22:04.207Z,148.03
2018-12-06T14:24:32.562Z,142.20
2018-12-06T14:27:01.024Z,182.33
2018-12-06T14:29:29.370Z,167.23
2018-12-06T14:31:58.402Z,134.27
2018-12-06T14:34:30.483Z,163.13
2018-12-06T14:37:02.164Z,139.77
2018-12-06T14:39:29.270Z,155.27
2018-12-06T14:41:58.007Z,156.43
2018-12-06T14:44:26.455Z,153.73
2018-12-06T14:46:54.842Z,155.60
2018-12-06T14:49:23.322Z,159.37
2018-12-06T14:51:51.820Z,154.00
2018-12-06T14:54:20.151Z,145.00
2018-12-06T14:56:48.683Z,152.27
2018-12-06T14:59:17.123Z,143.17
2018-12-06T15:01:46.010Z,134.50
2018-12-06T15:04:14.376Z,149.20
2018-12-06T15:06:43.255Z,121.57
2018-12-06T15:09:11.647Z,119.23
2018-12-06T15:11:40.016Z,94.53
2018-12-06T15:14:08.366Z,106.80
2018-12-06T15:16:36.726Z,119.77
2018-12-06T15:19:05.078Z,122.73
2018-12-06T15:21:33.540Z,111.83
2018-12-06T15:24:01.862Z,116.27
2018-12-06T15:26:30.332Z,108.97
2018-12-06T15:28:58.809Z,110.13
2018-12-06T15:31:27.191Z,108.70
2018-12-06T15:33:55.562Z,115.43
2018-12-06T15:36:24.030Z,114.87
2018-12-06T15:38:54.125Z,109.37
2018-12-06T15:41:22.477Z,100.47
2018-12-06T15:43:52.836Z,107.73
2018-12-06T15:46:21.211Z,92.33
2018-12-06T15:48:49.555Z,112.00
2018-12-06T15:51:18.199Z,105.50
2018-12-06T15:53:46.586Z,97.97
2018-12-06T15:56:15.003Z,100.93
2018-12-06T15:58:47.618Z,98.47
2018-12-06T16:01:16.007Z,100.10
2018-12-06T16:03:44.359Z,96.37
2018-12-06T16:06:12.756Z,94.17
2018-12-06T16:08:41.095Z,87.27
2018-12-06T16:11:09.534Z,100.00
2018-12-06T16:13:38.667Z,104.37
2018-12-06T16:16:07.029Z,89.33
2018-12-06T16:18:35.402Z,104.40
2018-12-06T16:21:03.858Z,78.77
2018-12-06T16:23:32.230Z,82.37
2018-12-06T16:26:01.670Z,70.53
2018-12-06T16:28:30.701Z,76.47
2018-12-06T16:31:00.195Z,71.47
2018-12-06T16:33:29.617Z,72.30
2018-12-06T16:35:58.259Z,64.03
2018-12-06T16:38:27.231Z,61.40
2018-12-06T16:40:56.747Z,61.47
2018-12-06T16:43:26.149Z,63.77
2018-12-06T16:45:54.581Z,69.63
2018-12-06T16:48:23.850Z,65.30
2018-12-06T16:50:53.069Z,65.27
2018-12-06T16:53:22.513Z,65.40
2018-12-06T16:55:51.020Z,67.10
2018-12-06T16:58:25.135Z,75.00
2018-12-06T17:00:53.995Z,61.50
2018-12-06T17:03:23.068Z,75.23
2018-12-06T17:05:51.903Z,71.80
2018-12-06T17:08:20.243Z,61.93
2018-12-06T17:10:49.224Z,61.23
2018-12-06T17:13:18.223Z,64.73
2018-12-06T17:15:46.841Z,65.83
2018-12-06T17:18:15.439Z,75.13
2018-12-06T17:20:43.855Z,65.60
2018-12-06T17:23:12.237Z,83.63
2018-12-06T17:25:40.635Z,77.60
2018-12-06T17:28:08.987Z,75.53
2018-12-06T17:30:37.337Z,76.77
2018-12-06T17:33:10.164Z,79.33
2018-12-06T17:35:38.522Z,82.07
2018-12-06T17:38:06.863Z,80.13
2018-12-06T17:40:35.296Z,71.87
2018-12-06T17:43:05.500Z,76.83
2018-12-06T17:45:34.676Z,75.10
2018-12-06T17:48:03.053Z,73.87
2018-12-06T17:50:31.424Z,74.83
2018-12-06T17:52:59.835Z,79.73
2018-12-06T17:55:28.360Z,78.53
2018-12-06T17:57:56.750Z,80.57
2018-12-06T18:00:25.198Z,83.07
2018-12-06T18:02:53.914Z,80.67
2018-12-06T18:05:22.373Z,97.00
2018-12-06T18:07:50.738Z,89.60
2018-12-06T18:10:20.218Z,100.67
2018-12-06T18:13:22.698Z,102.57
2018-12-06T18:15:51.791Z,96.23
2018-12-06T18:18:20.159Z,97.67
2018-12-06T18:20:48.531Z,99.80
2018-12-06T18:23:16.964Z,101.20
2018-12-06T18:25:45.444Z,92.73
2018-12-06T18:28:13.787Z,92.30
2018-12-06T18:30:42.170Z,95.20
2018-12-06T18:33:11.764Z,94.27
2018-12-06T18:35:40.281Z,100.27
2018-12-06T18:38:08.631Z,94.63
2018-12-06T18:40:37.132Z,102.33
2018-12-06T18:43:05.611Z,96.50
2018-12-06T18:45:34.205Z,101.83
2018-12-06T18:48:03.074Z,90.33
2018-12-06T18:50:31.498Z,97.90
2018-12-06T18:52:59.991Z,100.67
2018-12-06T18:55:28.840Z,93.50
2018-12-06T18:57:57.396Z,98.27
2018-12-06T19:00:25.819Z,95.13
2018-12-06T19:02:55.581Z,89.83
2018-12-06T19:05:24.107Z,95.10
2018-12-06T19:07:52.458Z,92.30
2018-12-06T19:10:21.040Z,85.73
2018-12-06T19:12:50.335Z,85.67
2018-12-06T19:15:18.820Z,84.40
2018-12-06T19:17:47.316Z,74.77
2018-12-06T19:20:15.669Z,79.03
2018-12-06T19:22:44.062Z,71.50
2018-12-06T19:25:12.419Z,66.40
2018-12-06T19:27:40.852Z,69.90
2018-12-06T19:30:10.347Z,65.60
2018-12-06T19:32:38.743Z,62.77
2018-12-06T19:35:07.187Z,70.50
2018-12-06T19:37:36.195Z,55.33
2018-12-06T19:40:05.188Z,59.00
2018-12-06T19:42:38.718Z,62.30
2018-12-06T19:45:04.375Z,60.23
2018-12-06T19:47:32.778Z,64.50
2018-12-06T19:50:01.157Z,66.43
2018-12-06T19:52:29.529Z,59.73
2018-12-06T19:55:01.566Z,66.80
2018-12-06T19:57:30.015Z,68.33
2018-12-06T19:59:58.390Z,70.33
2018-12-06T20:02:26.915Z,76.33
2018-12-06T20:04:55.319Z,69.10
2018-12-06T20:07:23.683Z,80.67
2018-12-06T20:09:52.082Z,81.97
2018-12-06T20:12:20.450Z,90.30
2018-12-06T20:14:48.839Z,83.03
2018-12-06T20:17:17.234Z,93.23
2018-12-06T20:19:45.751Z,98.23
2018-12-06T20:22:14.313Z,91.80
2018-12-06T20:24:42.682Z,100.53
2018-12-06T20:27:11.133Z,92.77
2018-12-06T20:29:39.748Z,105.80
2018-12-06T20:32:14.457Z,96.93
2018-12-06T20:34:38.508Z,102.33
2018-12-06T20:37:07.379Z,108.20
2018-12-06T20:39:35.780Z,107.77
2018-12-06T20:42:04.587Z,105.50
2018-12-06T20:44:32.946Z,110.10
2018-12-06T20:47:01.326Z,113.90
2018-12-06T20:49:29.927Z,102.47
2018-12-06T20:51:58.300Z,112.97
2018-12-06T20:54:26.735Z,116.50
2018-12-06T20:56:55.230Z,123.73
2018-12-06T20:59:24.340Z,117.20
2018-12-06T21:01:52.762Z,114.90
2018-12-06T21:04:21.127Z,115.60
2018-12-06T21:06:49.534Z,120.13
2018-12-06T21:09:18.698Z,117.00
2018-12-06T21:11:47.287Z,118.97
2018-12-06T21:14:21.921Z,112.60
2018-12-06T21:16:46.121Z,126.60
2018-12-06T21:19:14.495Z,121.57
2018-12-06T21:21:42.891Z,120.47
2018-12-06T21:24:11.711Z,119.30
2018-12-06T21:26:41.115Z,116.70
2018-12-06T21:29:10.556Z,119.67
2018-12-06T21:31:39.852Z,113.13
2018-12-06T21:34:09.307Z,121.07
2018-12-06T21:36:37.704Z,124.73
2018-12-06T21:39:08.139Z,123.83
2018-12-06T21:41:36.583Z,124.77
2018-12-06T21:44:05.163Z,142.23
2018-12-06T21:46:33.583Z,156.80
2018-12-06T21:49:02.051Z,142.77
2018-12-06T21:51:30.427Z,143.03
2018-12-06T21:53:58.787Z,142.67
2018-12-06T21:56:27.257Z,142.53
2018-12-06T21:58:55.629Z,152.37
2018-12-06T22:01:24.104Z,145.00
2018-12-06T22:03:53.420Z,152.67
2018-12-06T22:06:21.986Z,134.43
2018-12-06T22:08:50.391Z,154.50
2018-12-06T22:11:18.859Z,148.27
2018-12-06T22:13:47.353Z,154.33
2018-12-06T22:16:15.846Z,159.93
2018-12-06T22:18:44.288Z,164.17
2018-12-06T22:21:12.745Z,149.10
2018-12-06T22:23:41.200Z,162.73
2018-12-06T22:26:09.642Z,137.83
2018-12-06T22:28:38.118Z,153.30
2018-12-06T22:31:06.536Z,161.60
2018-12-06T22:33:35.003Z,143.70
2018-12-06T22:36:03.467Z,155.23
2018-12-06T22:38:34.286Z,157.10
2018-12-06T22:41:02.422Z,158.00
2018-12-06T22:43:30.878Z,157.43
2018-12-06T22:46:00.401Z,155.10
2018-12-06T22:48:28.939Z,148.80
2018-12-06T22:50:57.380Z,133.73
2018-12-06T22:53:25.970Z,147.03
2018-12-06T22:55:54.431Z,122.47
2018-12-06T22:58:22.970Z,118.43
2018-12-06T23:00:54.355Z,119.53
2018-12-06T23:03:23.229Z,103.63
2018-12-06T23:05:52.891Z,114.77
2018-12-06T23:08:21.574Z,120.10
2018-12-06T23:10:50.280Z,121.60
2018-12-06T23:13:18.886Z,117.80
2018-12-06T23:15:47.416Z,124.60
2018-12-06T23:18:15.923Z,134.40
2018-12-06T23:20:44.283Z,134.83
2018-12-06T23:23:12.662Z,141.80
2018-12-06T23:25:47.474Z,157.27
2018-12-06T23:28:15.991Z,140.47
2018-12-06T23:30:44.392Z,148.70
2018-12-06T23:33:12.775Z,144.53
2018-12-06T23:35:41.175Z,115.17
2018-12-06T23:38:09.666Z,129.53
2018-12-06T23:40:38.043Z,124.47
2018-12-06T23:43:06.412Z,116.33
2018-12-06T23:45:34.805Z,105.07
2018-12-06T23:48:03.218Z,99.97
2018-12-06T23:50:31.715Z,102.80
2018-12-06T23:53:00.052Z,91.83
2018-12-06T23:55:29.557Z,95.10
2018-12-06T23:57:57.914Z,94.03
